Decoded Metar for KBVO (BARTLESVILLE in OK, USA) (IATA:BVO) | Meteo·Mobile Aviation Weather
aviador You're here:

KBVO Decoded Metar

BARTLESVILLE in OK, USA
Report Time2018-10-20 19:53:00
UTC Time2018-10-20 21:00:54
Flight Rules Old
WindVRB at 03 kt
Visibility9999 m
Phenomena:N/A
Clouds:N/A
Expected CloudBase > 7,200 ft AGL from Temp-Dew spread
CeilingNone
Temp22°C (ISA +8)
Dew Point04°C (31% RH)
AAT19.6°C
QNH1026 hPa
Density Alt1,342 ft
Elevation689 ft
Report Wrong Elevation
Raw Report
KBVO 201953Z AUTO VRB03KT 10SM CLR 22/04 A3029 RMK AO2 SLP251
T02220039=

Extra information for KBVO:More info

Metar Taf Metar & Taf Last 4 Metars F.Rules Stats Wind Profile Meteogram Temp Stats Airport Information Weather charts Add Link Nearby VenuesMetar ALERT Operation Metar Decoded Social comments

AIRNAV info for KBVO